sensor_id;sensor_type;location;lat;lon;timestamp;pressure;altitude;pressure_sealevel;temperature
70819;BMP280;58439;51.046;13.692;2022-10-18T00:01:58;101046.09;;;14.01
70819;BMP280;58439;51.046;13.692;2022-10-18T00:04:26;101042.66;;;14.01
70819;BMP280;58439;51.046;13.692;2022-10-18T00:06:54;101038.41;;;14.00
70819;BMP280;58439;51.046;13.692;2022-10-18T00:09:22;101040.06;;;14.07
70819;BMP280;58439;51.046;13.692;2022-10-18T00:11:49;101044.56;;;14.13
70819;BMP280;58439;51.046;13.692;2022-10-18T00:14:17;101049.00;;;14.13
70819;BMP280;58439;51.046;13.692;2022-10-18T00:16:45;101049.75;;;14.07
70819;BMP280;58439;51.046;13.692;2022-10-18T00:19:12;101044.09;;;14.03
70819;BMP280;58439;51.046;13.692;2022-10-18T00:21:40;101048.03;;;13.93
70819;BMP280;58439;51.046;13.692;2022-10-18T00:24:10;101044.19;;;13.88
70819;BMP280;58439;51.046;13.692;2022-10-18T00:26:39;101043.97;;;13.90
70819;BMP280;58439;51.046;13.692;2022-10-18T00:29:12;101048.78;;;13.86
70819;BMP280;58439;51.046;13.692;2022-10-18T00:31:44;101055.44;;;13.82
70819;BMP280;58439;51.046;13.692;2022-10-18T00:34:22;101051.53;;;13.78
70819;BMP280;58439;51.046;13.692;2022-10-18T00:36:50;101050.31;;;13.74
70819;BMP280;58439;51.046;13.692;2022-10-18T00:39:20;101049.44;;;13.67
70819;BMP280;58439;51.046;13.692;2022-10-18T00:41:50;101057.72;;;13.64
70819;BMP280;58439;51.046;13.692;2022-10-18T00:46:47;101041.50;;;13.60
70819;BMP280;58439;51.046;13.692;2022-10-18T00:49:21;101043.31;;;13.60
70819;BMP280;58439;51.046;13.692;2022-10-18T00:51:58;101039.69;;;13.61
70819;BMP280;58439;51.046;13.692;2022-10-18T00:54:30;101046.34;;;13.57
70819;BMP280;58439;51.046;13.692;2022-10-18T00:56:59;101049.53;;;13.52
70819;BMP280;58439;51.046;13.692;2022-10-18T00:59:28;101037.91;;;13.47
70819;BMP280;58439;51.046;13.692;2022-10-18T01:01:59;101042.34;;;13.46
70819;BMP280;58439;51.046;13.692;2022-10-18T01:04:27;101039.06;;;13.38
70819;BMP280;58439;51.046;13.692;2022-10-18T01:32:37;101037.97;;;12.96
70819;BMP280;58439;51.046;13.692;2022-10-18T01:35:15;101042.25;;;12.97
70819;BMP280;58439;51.046;13.692;2022-10-18T01:37:47;101044.59;;;12.92
70819;BMP280;58439;51.046;13.692;2022-10-18T01:40:19;101041.16;;;12.91
70819;BMP280;58439;51.046;13.692;2022-10-18T01:42:49;101048.56;;;12.88
70819;BMP280;58439;51.046;13.692;2022-10-18T01:45:19;101045.13;;;12.87
70819;BMP280;58439;51.046;13.692;2022-10-18T01:47:49;101059.63;;;12.83
70819;BMP280;58439;51.046;13.692;2022-10-18T01:50:31;101056.38;;;12.81
70819;BMP280;58439;51.046;13.692;2022-10-18T01:53:28;101053.75;;;12.81
70819;BMP280;58439;51.046;13.692;2022-10-18T02:00:40;101053.88;;;12.73
70819;BMP280;58439;51.046;13.692;2022-10-18T02:03:20;101057.19;;;12.67
70819;BMP280;58439;51.046;13.692;2022-10-18T02:05:57;101051.16;;;12.66
70819;BMP280;58439;51.046;13.692;2022-10-18T02:11:09;101055.94;;;12.63
70819;BMP280;58439;51.046;13.692;2022-10-18T02:14:05;101049.44;;;12.59
70819;BMP280;58439;51.046;13.692;2022-10-18T02:16:49;101050.78;;;12.55
70819;BMP280;58439;51.046;13.692;2022-10-18T02:19:24;101049.34;;;12.52
70819;BMP280;58439;51.046;13.692;2022-10-18T02:21:55;101049.34;;;12.52
70819;BMP280;58439;51.046;13.692;2022-10-18T02:24:33;101044.53;;;12.56
70819;BMP280;58439;51.046;13.692;2022-10-18T02:27:02;101049.63;;;12.57
70819;BMP280;58439;51.046;13.692;2022-10-18T02:29:31;101048.97;;;12.55
70819;BMP280;58439;51.046;13.692;2022-10-18T02:32:35;101048.53;;;12.52
70819;BMP280;58439;51.046;13.692;2022-10-18T02:35:32;101051.66;;;12.47
70819;BMP280;58439;51.046;13.692;2022-10-18T02:38:04;101059.91;;;12.44
70819;BMP280;58439;51.046;13.692;2022-10-18T02:40:34;101060.91;;;12.43
70819;BMP280;58439;51.046;13.692;2022-10-18T02:43:05;101056.00;;;12.40
70819;BMP280;58439;51.046;13.692;2022-10-18T02:45:34;101056.38;;;12.37
70819;BMP280;58439;51.046;13.692;2022-10-18T02:48:09;101059.19;;;12.35
70819;BMP280;58439;51.046;13.692;2022-10-18T02:50:47;101060.81;;;12.36
70819;BMP280;58439;51.046;13.692;2022-10-18T02:53:15;101061.63;;;12.37
70819;BMP280;58439;51.046;13.692;2022-10-18T02:55:43;101060.00;;;12.36
70819;BMP280;58439;51.046;13.692;2022-10-18T02:58:12;101061.81;;;12.35
70819;BMP280;58439;51.046;13.692;2022-10-18T03:00:42;101064.41;;;12.35
70819;BMP280;58439;51.046;13.692;2022-10-18T03:03:10;101054.56;;;12.37
70819;BMP280;58439;51.046;13.692;2022-10-18T03:05:37;101068.84;;;12.35
70819;BMP280;58439;51.046;13.692;2022-10-18T03:17:49;101069.41;;;12.30
70819;BMP280;58439;51.046;13.692;2022-10-18T03:24:27;101068.38;;;12.16
70819;BMP280;58439;51.046;13.692;2022-10-18T03:26:58;101069.53;;;12.14
70819;BMP280;58439;51.046;13.692;2022-10-18T03:29:25;101064.47;;;12.12
70819;BMP280;58439;51.046;13.692;2022-10-18T03:31:53;101059.41;;;12.11
70819;BMP280;58439;51.046;13.692;2022-10-18T03:34:20;101057.41;;;12.13
70819;BMP280;58439;51.046;13.692;2022-10-18T03:36:48;101067.34;;;12.17
70819;BMP280;58439;51.046;13.692;2022-10-18T03:39:16;101069.00;;;12.19
70819;BMP280;58439;51.046;13.692;2022-10-18T03:41:44;101063.38;;;12.22
70819;BMP280;58439;51.046;13.692;2022-10-18T03:44:11;101059.44;;;12.26
70819;BMP280;58439;51.046;13.692;2022-10-18T03:46:39;101059.25;;;12.27
70819;BMP280;58439;51.046;13.692;2022-10-18T03:49:06;101067.94;;;12.28
70819;BMP280;58439;51.046;13.692;2022-10-18T03:51:34;101063.75;;;12.33
70819;BMP280;58439;51.046;13.692;2022-10-18T03:54:01;101064.53;;;12.42
70819;BMP280;58439;51.046;13.692;2022-10-18T03:56:28;101057.72;;;12.48
70819;BMP280;58439;51.046;13.692;2022-10-18T03:58:55;101062.75;;;12.57
70819;BMP280;58439;51.046;13.692;2022-10-18T04:01:23;101061.28;;;12.69
70819;BMP280;58439;51.046;13.692;2022-10-18T04:03:50;101062.06;;;12.85
70819;BMP280;58439;51.046;13.692;2022-10-18T04:06:17;101055.00;;;13.00
70819;BMP280;58439;51.046;13.692;2022-10-18T04:08:45;101059.41;;;13.14
70819;BMP280;58439;51.046;13.692;2022-10-18T04:11:12;101057.13;;;13.26
70819;BMP280;58439;51.046;13.692;2022-10-18T04:13:42;101064.44;;;13.30
70819;BMP280;58439;51.046;13.692;2022-10-18T04:16:11;101061.25;;;13.35
70819;BMP280;58439;51.046;13.692;2022-10-18T04:18:38;101053.25;;;13.43
70819;BMP280;58439;51.046;13.692;2022-10-18T04:21:16;101061.22;;;13.50
70819;BMP280;58439;51.046;13.692;2022-10-18T04:23:49;101058.41;;;13.51
70819;BMP280;58439;51.046;13.692;2022-10-18T04:26:16;101061.03;;;13.51
70819;BMP280;58439;51.046;13.692;2022-10-18T04:28:44;101069.34;;;13.55
70819;BMP280;58439;51.046;13.692;2022-10-18T04:31:11;101065.16;;;13.60
70819;BMP280;58439;51.046;13.692;2022-10-18T04:33:38;101061.59;;;13.68
70819;BMP280;58439;51.046;13.692;2022-10-18T04:36:11;101063.47;;;13.74
70819;BMP280;58439;51.046;13.692;2022-10-18T04:38:41;101064.53;;;13.80
70819;BMP280;58439;51.046;13.692;2022-10-18T04:41:09;101061.94;;;13.86
70819;BMP280;58439;51.046;13.692;2022-10-18T04:43:38;101059.78;;;13.90
70819;BMP280;58439;51.046;13.692;2022-10-18T04:46:05;101068.09;;;13.94
70819;BMP280;58439;51.046;13.692;2022-10-18T04:48:32;101067.72;;;13.97
70819;BMP280;58439;51.046;13.692;2022-10-18T04:51:00;101067.34;;;14.00
70819;BMP280;58439;51.046;13.692;2022-10-18T04:53:27;101067.78;;;14.03
70819;BMP280;58439;51.046;13.692;2022-10-18T04:55:54;101072.63;;;14.06
70819;BMP280;58439;51.046;13.692;2022-10-18T04:58:21;101069.41;;;14.11
70819;BMP280;58439;51.046;13.692;2022-10-18T05:00:49;101071.69;;;14.14
70819;BMP280;58439;51.046;13.692;2022-10-18T05:03:17;101064.03;;;14.19
70819;BMP280;58439;51.046;13.692;2022-10-18T05:05:44;101056.19;;;14.26
70819;BMP280;58439;51.046;13.692;2022-10-18T05:08:31;101045.25;;;14.29
70819;BMP280;58439;51.046;13.692;2022-10-18T05:11:00;101043.66;;;14.34
70819;BMP280;58439;51.046;13.692;2022-10-18T05:13:27;101045.91;;;14.37
70819;BMP280;58439;51.046;13.692;2022-10-18T05:15:54;101051.41;;;14.42
70819;BMP280;58439;51.046;13.692;2022-10-18T05:18:21;101054.28;;;14.47
70819;BMP280;58439;51.046;13.692;2022-10-18T05:20:49;101058.19;;;14.52
70819;BMP280;58439;51.046;13.692;2022-10-18T05:23:16;101056.78;;;14.56
70819;BMP280;58439;51.046;13.692;2022-10-18T05:25:43;101059.00;;;14.59
70819;BMP280;58439;51.046;13.692;2022-10-18T05:28:10;101053.34;;;14.62
70819;BMP280;58439;51.046;13.692;2022-10-18T05:31:04;101046.25;;;14.62
70819;BMP280;58439;51.046;13.692;2022-10-18T05:33:32;101047.09;;;14.63
70819;BMP280;58439;51.046;13.692;2022-10-18T05:35:59;101051.34;;;14.64
70819;BMP280;58439;51.046;13.692;2022-10-18T05:38:26;101047.66;;;14.65
70819;BMP280;58439;51.046;13.692;2022-10-18T05:40:53;101052.56;;;14.68
70819;BMP280;58439;51.046;13.692;2022-10-18T05:43:20;101057.44;;;14.71
70819;BMP280;58439;51.046;13.692;2022-10-18T05:45:49;101052.97;;;14.71
70819;BMP280;58439;51.046;13.692;2022-10-18T05:48:17;101049.34;;;14.72
70819;BMP280;58439;51.046;13.692;2022-10-18T05:50:45;101043.06;;;14.73
70819;BMP280;58439;51.046;13.692;2022-10-18T05:53:12;101035.16;;;14.73
70819;BMP280;58439;51.046;13.692;2022-10-18T05:56:04;101031.09;;;14.77
70819;BMP280;58439;51.046;13.692;2022-10-18T05:58:32;101018.38;;;14.74
70819;BMP280;58439;51.046;13.692;2022-10-18T06:01:02;101004.94;;;14.63
70819;BMP280;58439;51.046;13.692;2022-10-18T06:03:29;100998.59;;;14.51
70819;BMP280;58439;51.046;13.692;2022-10-18T06:06:09;101005.47;;;14.45
70819;BMP280;58439;51.046;13.692;2022-10-18T06:08:43;101010.50;;;14.46
70819;BMP280;58439;51.046;13.692;2022-10-18T06:11:15;101020.50;;;14.51
70819;BMP280;58439;51.046;13.692;2022-10-18T06:13:44;101014.44;;;14.57
70819;BMP280;58439;51.046;13.692;2022-10-18T06:16:14;101021.75;;;14.62
70819;BMP280;58439;51.046;13.692;2022-10-18T06:18:41;101022.16;;;14.65
70819;BMP280;58439;51.046;13.692;2022-10-18T06:21:09;101019.16;;;14.68
70819;BMP280;58439;51.046;13.692;2022-10-18T06:23:36;101019.34;;;14.73
70819;BMP280;58439;51.046;13.692;2022-10-18T06:26:07;101016.13;;;14.78
70819;BMP280;58439;51.046;13.692;2022-10-18T06:28:36;101012.06;;;14.82
70819;BMP280;58439;51.046;13.692;2022-10-18T06:31:05;100991.84;;;14.83
70819;BMP280;58439;51.046;13.692;2022-10-18T06:33:40;100991.00;;;14.82
70819;BMP280;58439;51.046;13.692;2022-10-18T06:36:14;100994.25;;;14.84
70819;BMP280;58439;51.046;13.692;2022-10-18T06:38:42;101011.09;;;14.83
70819;BMP280;58439;51.046;13.692;2022-10-18T06:41:09;101020.63;;;14.84
70819;BMP280;58439;51.046;13.692;2022-10-18T06:43:39;101023.88;;;14.86
70819;BMP280;58439;51.046;13.692;2022-10-18T06:46:08;101026.53;;;14.93
70819;BMP280;58439;51.046;13.692;2022-10-18T06:48:37;101020.66;;;14.97
70819;BMP280;58439;51.046;13.692;2022-10-18T06:51:06;101037.72;;;15.08
70819;BMP280;58439;51.046;13.692;2022-10-18T06:53:42;101041.22;;;15.22
70819;BMP280;58439;51.046;13.692;2022-10-18T06:56:42;101029.25;;;15.39
70819;BMP280;58439;51.046;13.692;2022-10-18T06:59:09;101023.16;;;15.52
70819;BMP280;58439;51.046;13.692;2022-10-18T07:01:36;101027.03;;;15.62
70819;BMP280;58439;51.046;13.692;2022-10-18T07:04:04;101027.22;;;15.68
70819;BMP280;58439;51.046;13.692;2022-10-18T07:06:31;101024.00;;;15.65
70819;BMP280;58439;51.046;13.692;2022-10-18T07:08:58;101018.72;;;15.59
70819;BMP280;58439;51.046;13.692;2022-10-18T07:11:26;101014.06;;;15.54
70819;BMP280;58439;51.046;13.692;2022-10-18T07:14:03;101013.03;;;15.55
70819;BMP280;58439;51.046;13.692;2022-10-18T07:16:32;101017.09;;;15.58
70819;BMP280;58439;51.046;13.692;2022-10-18T07:18:59;101018.91;;;15.64
70819;BMP280;58439;51.046;13.692;2022-10-18T07:21:27;101024.19;;;15.71
70819;BMP280;58439;51.046;13.692;2022-10-18T07:23:57;101021.13;;;15.80
70819;BMP280;58439;51.046;13.692;2022-10-18T07:26:28;101027.41;;;15.92
70819;BMP280;58439;51.046;13.692;2022-10-18T07:29:21;101035.28;;;16.06
70819;BMP280;58439;51.046;13.692;2022-10-18T07:31:47;101027.59;;;16.11
70819;BMP280;58439;51.046;13.692;2022-10-18T07:34:15;101019.44;;;16.25
70819;BMP280;58439;51.046;13.692;2022-10-18T07:36:42;101010.06;;;16.36
70819;BMP280;58439;51.046;13.692;2022-10-18T07:39:12;101014.25;;;16.44
70819;BMP280;58439;51.046;13.692;2022-10-18T07:41:42;101021.59;;;16.42
70819;BMP280;58439;51.046;13.692;2022-10-18T07:44:23;101026.66;;;16.43
70819;BMP280;58439;51.046;13.692;2022-10-18T07:47:05;101023.44;;;16.48
70819;BMP280;58439;51.046;13.692;2022-10-18T07:50:15;101020.34;;;16.51
70819;BMP280;58439;51.046;13.692;2022-10-18T07:52:43;101023.19;;;16.56
70819;BMP280;58439;51.046;13.692;2022-10-18T07:55:10;101021.66;;;16.73
70819;BMP280;58439;51.046;13.692;2022-10-18T07:57:37;101022.03;;;16.83
70819;BMP280;58439;51.046;13.692;2022-10-18T08:00:06;101011.19;;;16.92
70819;BMP280;58439;51.046;13.692;2022-10-18T08:02:37;101013.25;;;16.83
70819;BMP280;58439;51.046;13.692;2022-10-18T08:05:04;101007.66;;;16.66
70819;BMP280;58439;51.046;13.692;2022-10-18T08:07:32;101011.84;;;16.42
70819;BMP280;58439;51.046;13.692;2022-10-18T08:10:00;101017.59;;;16.26
70819;BMP280;58439;51.046;13.692;2022-10-18T08:12:28;101020.69;;;16.16
70819;BMP280;58439;51.046;13.692;2022-10-18T08:14:55;101017.81;;;16.11
70819;BMP280;58439;51.046;13.692;2022-10-18T08:17:22;101020.28;;;16.06
70819;BMP280;58439;51.046;13.692;2022-10-18T08:19:50;101018.88;;;16.10
70819;BMP280;58439;51.046;13.692;2022-10-18T08:22:37;100993.75;;;16.39
70819;BMP280;58439;51.046;13.692;2022-10-18T08:25:11;100989.25;;;16.53
70819;BMP280;58439;51.046;13.692;2022-10-18T08:27:47;100995.09;;;16.62
70819;BMP280;58439;51.046;13.692;2022-10-18T08:30:15;100976.81;;;16.60
70819;BMP280;58439;51.046;13.692;2022-10-18T08:32:42;100975.25;;;16.52
70819;BMP280;58439;51.046;13.692;2022-10-18T08:35:09;100961.97;;;16.59
70819;BMP280;58439;51.046;13.692;2022-10-18T08:37:37;100958.25;;;16.73
70819;BMP280;58439;51.046;13.692;2022-10-18T08:40:05;100943.44;;;16.66
70819;BMP280;58439;51.046;13.692;2022-10-18T08:45:18;100944.38;;;16.84
70819;BMP280;58439;51.046;13.692;2022-10-18T08:48:05;100952.00;;;16.68
70819;BMP280;58439;51.046;13.692;2022-10-18T08:50:35;100951.84;;;16.56
70819;BMP280;58439;51.046;13.692;2022-10-18T08:53:19;100949.00;;;16.51
70819;BMP280;58439;51.046;13.692;2022-10-18T08:56:04;100961.25;;;16.45
70819;BMP280;58439;51.046;13.692;2022-10-18T08:58:42;100959.78;;;16.49
70819;BMP280;58439;51.046;13.692;2022-10-18T09:04:37;100941.72;;;16.53
70819;BMP280;58439;51.046;13.692;2022-10-18T09:07:33;100932.13;;;16.59
70819;BMP280;58439;51.046;13.692;2022-10-18T09:13:41;100934.31;;;16.68
70819;BMP280;58439;51.046;13.692;2022-10-18T09:16:20;100935.50;;;16.72
70819;BMP280;58439;51.046;13.692;2022-10-18T09:22:57;100929.91;;;17.12
70819;BMP280;58439;51.046;13.692;2022-10-18T09:25:45;100923.34;;;17.39
70819;BMP280;58439;51.046;13.692;2022-10-18T09:34:37;100908.97;;;17.10
70819;BMP280;58439;51.046;13.692;2022-10-18T09:37:13;100914.41;;;17.15
70819;BMP280;58439;51.046;13.692;2022-10-18T10:08:12;100867.81;;;19.29
70819;BMP280;58439;51.046;13.692;2022-10-18T10:10:46;100872.31;;;20.14
70819;BMP280;58439;51.046;13.692;2022-10-18T10:13:19;100874.50;;;19.72
70819;BMP280;58439;51.046;13.692;2022-10-18T10:16:00;100861.22;;;19.44
70819;BMP280;58439;51.046;13.692;2022-10-18T10:18:34;100868.84;;;19.40
70819;BMP280;58439;51.046;13.692;2022-10-18T10:36:32;100928.25;;;18.69
70819;BMP280;58439;51.046;13.692;2022-10-18T10:39:16;100903.03;;;18.36
70819;BMP280;58439;51.046;13.692;2022-10-18T10:41:57;100950.38;;;18.15
70819;BMP280;58439;51.046;13.692;2022-10-18T10:44:30;100946.16;;;17.77
70819;BMP280;58439;51.046;13.692;2022-10-18T10:47:06;100979.47;;;17.41
70819;BMP280;58439;51.046;13.692;2022-10-18T10:54:56;100980.19;;;17.05
70819;BMP280;58439;51.046;13.692;2022-10-18T10:57:49;100986.09;;;17.01
70819;BMP280;58439;51.046;13.692;2022-10-18T11:04:55;100978.97;;;16.76
70819;BMP280;58439;51.046;13.692;2022-10-18T11:08:01;100971.47;;;16.73
70819;BMP280;58439;51.046;13.692;2022-10-18T11:10:41;100974.66;;;16.75
70819;BMP280;58439;51.046;13.692;2022-10-18T11:16:32;100968.50;;;16.57
70819;BMP280;58439;51.046;13.692;2022-10-18T11:22:56;100989.66;;;16.50
70819;BMP280;58439;51.046;13.692;2022-10-18T11:44:03;101002.88;;;16.50
70819;BMP280;58439;51.046;13.692;2022-10-18T11:47:09;100991.28;;;16.51
70819;BMP280;58439;51.046;13.692;2022-10-18T12:03:37;101020.63;;;16.30
70819;BMP280;58439;51.046;13.692;2022-10-18T12:06:23;101016.97;;;16.24
70819;BMP280;58439;51.046;13.692;2022-10-18T12:09:01;101020.25;;;16.19
70819;BMP280;58439;51.046;13.692;2022-10-18T12:11:49;101026.34;;;16.13
70819;BMP280;58439;51.046;13.692;2022-10-18T12:14:50;101022.53;;;16.03
70819;BMP280;58439;51.046;13.692;2022-10-18T12:17:41;101018.44;;;16.07
70819;BMP280;58439;51.046;13.692;2022-10-18T12:22:59;101022.28;;;16.17
70819;BMP280;58439;51.046;13.692;2022-10-18T12:25:31;101025.97;;;16.16
70819;BMP280;58439;51.046;13.692;2022-10-18T12:30:33;101022.31;;;16.04
70819;BMP280;58439;51.046;13.692;2022-10-18T12:33:12;101033.25;;;16.08
70819;BMP280;58439;51.046;13.692;2022-10-18T12:38:44;101036.53;;;16.10
70819;BMP280;58439;51.046;13.692;2022-10-18T12:41:31;101029.19;;;16.12
70819;BMP280;58439;51.046;13.692;2022-10-18T12:46:53;101015.31;;;16.43
70819;BMP280;58439;51.046;13.692;2022-10-18T12:49:37;101016.50;;;16.47
70819;BMP280;58439;51.046;13.692;2022-10-18T12:52:22;101021.38;;;16.43
70819;BMP280;58439;51.046;13.692;2022-10-18T13:14:05;101032.81;;;16.24
70819;BMP280;58439;51.046;13.692;2022-10-18T13:26:04;101056.72;;;16.49
70819;BMP280;58439;51.046;13.692;2022-10-18T13:29:05;101055.94;;;16.42
70819;BMP280;58439;51.046;13.692;2022-10-18T13:32:02;101052.31;;;16.36
70819;BMP280;58439;51.046;13.692;2022-10-18T13:34:37;101054.94;;;16.36
70819;BMP280;58439;51.046;13.692;2022-10-18T13:39:37;101057.59;;;16.30
70819;BMP280;58439;51.046;13.692;2022-10-18T13:44:42;101049.91;;;16.21
70819;BMP280;58439;51.046;13.692;2022-10-18T13:47:31;101047.84;;;16.23
70819;BMP280;58439;51.046;13.692;2022-10-18T13:50:26;101042.19;;;16.27
70819;BMP280;58439;51.046;13.692;2022-10-18T13:56:35;101037.06;;;16.32
70819;BMP280;58439;51.046;13.692;2022-10-18T13:59:36;101033.63;;;16.38
70819;BMP280;58439;51.046;13.692;2022-10-18T14:02:17;101036.66;;;16.41
70819;BMP280;58439;51.046;13.692;2022-10-18T14:05:26;101040.28;;;16.47
70819;BMP280;58439;51.046;13.692;2022-10-18T14:13:50;101019.41;;;16.77
70819;BMP280;58439;51.046;13.692;2022-10-18T14:16:38;101032.22;;;17.11
70819;BMP280;58439;51.046;13.692;2022-10-18T14:19:45;101031.91;;;17.51
70819;BMP280;58439;51.046;13.692;2022-10-18T14:22:39;101024.69;;;17.83
70819;BMP280;58439;51.046;13.692;2022-10-18T14:25:36;101024.13;;;17.99
70819;BMP280;58439;51.046;13.692;2022-10-18T14:28:20;101030.13;;;18.25
70819;BMP280;58439;51.046;13.692;2022-10-18T14:31:06;101034.53;;;18.49
70819;BMP280;58439;51.046;13.692;2022-10-18T14:41:54;101046.84;;;17.89
70819;BMP280;58439;51.046;13.692;2022-10-18T15:01:04;101064.59;;;16.69
70819;BMP280;58439;51.046;13.692;2022-10-18T15:04:46;101067.06;;;16.57
70819;BMP280;58439;51.046;13.692;2022-10-18T15:08:04;101057.94;;;16.40
70819;BMP280;58439;51.046;13.692;2022-10-18T15:11:51;101064.50;;;16.24
70819;BMP280;58439;51.046;13.692;2022-10-18T15:15:32;101053.97;;;16.17
70819;BMP280;58439;51.046;13.692;2022-10-18T15:29:25;101059.44;;;16.80
70819;BMP280;58439;51.046;13.692;2022-10-18T15:36:51;101067.78;;;16.77
70819;BMP280;58439;51.046;13.692;2022-10-18T15:42:49;101068.91;;;16.50
70819;BMP280;58439;51.046;13.692;2022-10-18T15:45:36;101070.97;;;16.35
70819;BMP280;58439;51.046;13.692;2022-10-18T15:48:41;101084.06;;;16.16
70819;BMP280;58439;51.046;13.692;2022-10-18T15:51:47;101075.75;;;15.93
70819;BMP280;58439;51.046;13.692;2022-10-18T15:54:41;101082.25;;;15.77
70819;BMP280;58439;51.046;13.692;2022-10-18T15:57:09;101088.09;;;15.59
70819;BMP280;58439;51.046;13.692;2022-10-18T15:59:50;101090.34;;;15.49
70819;BMP280;58439;51.046;13.692;2022-10-18T16:02:19;101095.38;;;15.51
70819;BMP280;58439;51.046;13.692;2022-10-18T16:05:15;101086.66;;;15.44
70819;BMP280;58439;51.046;13.692;2022-10-18T16:07:53;101085.59;;;15.25
70819;BMP280;58439;51.046;13.692;2022-10-18T16:10:21;101090.41;;;15.08
70819;BMP280;58439;51.046;13.692;2022-10-18T16:12:48;101090.13;;;14.90
70819;BMP280;58439;51.046;13.692;2022-10-18T16:15:15;101098.47;;;14.87
70819;BMP280;58439;51.046;13.692;2022-10-18T16:17:43;101097.66;;;14.86
70819;BMP280;58439;51.046;13.692;2022-10-18T16:20:22;101098.88;;;14.90
70819;BMP280;58439;51.046;13.692;2022-10-18T16:22:57;101101.72;;;14.95
70819;BMP280;58439;51.046;13.692;2022-10-18T16:25:45;101109.03;;;15.00
70819;BMP280;58439;51.046;13.692;2022-10-18T16:28:22;101103.16;;;14.98
70819;BMP280;58439;51.046;13.692;2022-10-18T16:31:03;101110.06;;;14.99
70819;BMP280;58439;51.046;13.692;2022-10-18T16:33:31;101104.56;;;15.00
70819;BMP280;58439;51.046;13.692;2022-10-18T16:35:59;101109.03;;;14.93
70819;BMP280;58439;51.046;13.692;2022-10-18T16:38:35;101108.19;;;14.86
70819;BMP280;58439;51.046;13.692;2022-10-18T16:41:06;101113.22;;;14.81
70819;BMP280;58439;51.046;13.692;2022-10-18T16:43:34;101114.22;;;14.80
70819;BMP280;58439;51.046;13.692;2022-10-18T16:46:03;101115.25;;;14.79
70819;BMP280;58439;51.046;13.692;2022-10-18T16:48:30;101119.50;;;14.80
70819;BMP280;58439;51.046;13.692;2022-10-18T16:50:58;101116.25;;;14.85
70819;BMP280;58439;51.046;13.692;2022-10-18T16:53:25;101114.84;;;14.89
70819;BMP280;58439;51.046;13.692;2022-10-18T16:55:58;101117.50;;;14.89
70819;BMP280;58439;51.046;13.692;2022-10-18T16:58:31;101116.31;;;14.91
70819;BMP280;58439;51.046;13.692;2022-10-18T17:01:35;101119.81;;;14.98
70819;BMP280;58439;51.046;13.692;2022-10-18T17:04:34;101118.78;;;15.06
70819;BMP280;58439;51.046;13.692;2022-10-18T17:07:23;101120.63;;;15.12
70819;BMP280;58439;51.046;13.692;2022-10-18T17:09:51;101120.25;;;15.15
70819;BMP280;58439;51.046;13.692;2022-10-18T17:12:18;101117.63;;;15.15
70819;BMP280;58439;51.046;13.692;2022-10-18T17:14:45;101116.16;;;15.13
70819;BMP280;58439;51.046;13.692;2022-10-18T17:17:12;101117.97;;;15.05
70819;BMP280;58439;51.046;13.692;2022-10-18T17:19:40;101119.75;;;14.92
70819;BMP280;58439;51.046;13.692;2022-10-18T17:22:07;101123.13;;;14.79
70819;BMP280;58439;51.046;13.692;2022-10-18T17:24:34;101122.69;;;14.69
70819;BMP280;58439;51.046;13.692;2022-10-18T17:27:02;101130.34;;;14.64
70819;BMP280;58439;51.046;13.692;2022-10-18T17:29:29;101127.72;;;14.64
70819;BMP280;58439;51.046;13.692;2022-10-18T17:31:57;101133.75;;;14.58
70819;BMP280;58439;51.046;13.692;2022-10-18T17:34:24;101128.81;;;14.48
70819;BMP280;58439;51.046;13.692;2022-10-18T17:36:52;101134.25;;;14.40
70819;BMP280;58439;51.046;13.692;2022-10-18T17:39:20;101127.06;;;14.27
70819;BMP280;58439;51.046;13.692;2022-10-18T17:41:47;101120.28;;;14.18
70819;BMP280;58439;51.046;13.692;2022-10-18T17:44:14;101118.38;;;14.05
70819;BMP280;58439;51.046;13.692;2022-10-18T17:46:42;101118.94;;;14.01
70819;BMP280;58439;51.046;13.692;2022-10-18T17:49:09;101116.09;;;13.96
70819;BMP280;58439;51.046;13.692;2022-10-18T17:51:36;101122.09;;;13.89
70819;BMP280;58439;51.046;13.692;2022-10-18T17:54:04;101119.66;;;13.88
70819;BMP280;58439;51.046;13.692;2022-10-18T17:56:34;101124.25;;;13.86
70819;BMP280;58439;51.046;13.692;2022-10-18T17:59:01;101124.56;;;13.98
70819;BMP280;58439;51.046;13.692;2022-10-18T18:01:29;101131.97;;;14.09
70819;BMP280;58439;51.046;13.692;2022-10-18T18:04:01;101131.06;;;14.23
70819;BMP280;58439;51.046;13.692;2022-10-18T18:06:34;101126.91;;;14.35
70819;BMP280;58439;51.046;13.692;2022-10-18T18:09:09;101133.06;;;14.49
70819;BMP280;58439;51.046;13.692;2022-10-18T18:11:40;101133.94;;;14.56
70819;BMP280;58439;51.046;13.692;2022-10-18T18:14:10;101136.41;;;14.64
70819;BMP280;58439;51.046;13.692;2022-10-18T18:16:41;101131.81;;;14.73
70819;BMP280;58439;51.046;13.692;2022-10-18T18:19:10;101130.41;;;14.77
70819;BMP280;58439;51.046;13.692;2022-10-18T18:21:38;101136.47;;;14.77
70819;BMP280;58439;51.046;13.692;2022-10-18T18:24:06;101126.00;;;14.84
70819;BMP280;58439;51.046;13.692;2022-10-18T18:26:34;101125.63;;;14.87
70819;BMP280;58439;51.046;13.692;2022-10-18T18:29:03;101130.09;;;14.87
70819;BMP280;58439;51.046;13.692;2022-10-18T18:31:31;101131.66;;;14.88
70819;BMP280;58439;51.046;13.692;2022-10-18T18:34:07;101127.22;;;14.88
70819;BMP280;58439;51.046;13.692;2022-10-18T18:36:34;101133.69;;;14.86
70819;BMP280;58439;51.046;13.692;2022-10-18T18:39:02;101130.03;;;14.80
70819;BMP280;58439;51.046;13.692;2022-10-18T18:41:31;101138.69;;;14.74
70819;BMP280;58439;51.046;13.692;2022-10-18T18:44:04;101129.75;;;14.68
70819;BMP280;58439;51.046;13.692;2022-10-18T18:46:33;101132.16;;;14.70